Time;durP1;ratioP1;P1;durP2;ratioP2;P2;SDS_P1;SDS_P2;PMS_P1;PMS_P2;Temp;Humidity;BMP_temperature;BMP_pressure;BME280_temperature;BME280_humidity;BME280_pressure;Samples;Min_cycle;Max_cycle;Signal;HPM_P1;HPM_P2
2022/07/22 00:01:33;;;;;;;9.48;8.68;;;;;;;19.08;75.82;100731.09;5069435;28;20071;-63
2022/07/22 00:04:01;;;;;;;10.93;10.02;;;;;;;19.05;75.91;100737.47;5055228;28;20055;-65
2022/07/22 00:06:28;;;;;;;11.13;10.13;;;;;;;19.11;75.76;100741.66;5072297;28;20052;-65
2022/07/22 00:08:56;;;;;;;11.52;10.55;;;;;;;19.14;75.79;100737.28;5072168;28;20044;-64
2022/07/22 00:11:25;;;;;;;10.32;9.38;;;;;;;19.13;75.78;100738.44;5072000;28;20369;-64
2022/07/22 00:13:52;;;;;;;11.45;10.40;;;;;;;19.12;75.82;100739.66;5068346;28;20382;-64
2022/07/22 00:16:20;;;;;;;10.38;9.38;;;;;;;19.14;76.19;100740.91;5071581;28;20067;-65
2022/07/22 00:18:50;;;;;;;11.18;9.07;;;;;;;19.12;76.26;100740.47;5071979;28;20056;-65
2022/07/22 00:21:21;;;;;;;11.13;10.02;;;;;;;19.14;76.21;100742.94;5071720;28;20068;-64
2022/07/22 00:23:49;;;;;;;9.43;8.52;;;;;;;19.10;76.59;100747.66;5066819;28;20040;-65
2022/07/22 00:26:17;;;;;;;9.23;8.20;;;;;;;19.11;76.72;100740.81;5071937;28;20060;-65
2022/07/22 00:28:45;;;;;;;9.20;8.30;;;;;;;19.11;77.02;100743.63;5071832;28;20060;-64
2022/07/22 00:31:13;;;;;;;10.43;9.40;;;;;;;19.11;76.87;100738.00;5071859;28;20052;-64
2022/07/22 00:33:43;;;;;;;9.32;8.43;;;;;;;19.11;77.10;100743.63;5067972;28;20045;-65
2022/07/22 00:36:10;;;;;;;10.10;9.10;;;;;;;19.09;77.24;100732.72;5071936;28;20056;-65
2022/07/22 00:38:38;;;;;;;9.60;8.68;;;;;;;19.11;77.62;100743.63;5071845;28;20040;-65
2022/07/22 00:41:08;;;;;;;11.90;10.60;;;;;;;19.12;77.37;100734.81;5071908;28;20075;-65
2022/07/22 00:43:55;;;;;;;13.10;11.45;;;;;;;19.11;77.49;100735.16;5063756;28;20051;-65
2022/07/22 00:46:23;;;;;;;10.25;9.35;;;;;;;19.11;77.73;100738.00;5051818;28;20068;-65
2022/07/22 00:48:51;;;;;;;8.98;8.13;;;;;;;19.13;77.77;100738.44;5051519;28;20058;-65
2022/07/22 00:51:19;;;;;;;10.27;8.93;;;;;;;19.14;77.60;100740.09;5053198;28;20122;-65
2022/07/22 00:53:47;;;;;;;11.00;9.70;;;;;;;19.13;77.28;100733.66;5071776;28;20052;-65
2022/07/22 00:56:15;;;;;;;10.57;9.57;;;;;;;19.14;76.59;100734.44;5071602;28;20048;-65
2022/07/22 00:58:44;;;;;;;11.27;10.27;;;;;;;19.09;76.51;100734.72;5071853;28;20408;-65
2022/07/22 01:01:12;;;;;;;11.03;10.03;;;;;;;19.10;75.95;100736.38;5070202;28;20057;-64
2022/07/22 01:03:40;;;;;;;12.70;11.50;;;;;;;19.06;76.12;100725.78;5050396;28;20495;-65
2022/07/22 01:06:10;;;;;;;12.65;11.35;;;;;;;19.01;75.97;100730.91;5071743;28;20049;-65
2022/07/22 01:08:39;;;;;;;12.50;11.30;;;;;;;19.03;76.07;100732.19;5071176;28;20060;-65
2022/07/22 01:11:14;;;;;;;12.27;10.73;;;;;;;19.01;76.12;100734.56;5071815;28;20063;-65
2022/07/22 01:13:42;;;;;;;11.70;10.70;;;;;;;18.98;76.03;100738.13;5066484;28;20045;-65
2022/07/22 01:16:12;;;;;;;11.50;10.40;;;;;;;19.01;76.02;100742.22;5071215;28;20064;-65
2022/07/22 01:18:41;;;;;;;11.43;10.52;;;;;;;19.04;76.17;100738.63;5071362;28;20059;-65
2022/07/22 01:21:11;;;;;;;13.40;12.15;;;;;;;19.03;75.77;100745.50;5052608;28;20053;-65
2022/07/22 01:23:39;;;;;;;12.65;11.55;;;;;;;18.96;75.76;100731.19;5052764;28;20060;-65
2022/07/22 01:26:07;;;;;;;13.70;12.43;;;;;;;18.98;75.29;100737.28;5055232;28;20057;-65
2022/07/22 01:28:34;;;;;;;13.98;12.65;;;;;;;18.96;75.37;100737.66;5054910;28;20067;-66
2022/07/22 01:31:02;;;;;;;14.23;12.95;;;;;;;18.95;75.51;100738.84;5066792;28;20063;-64
2022/07/22 01:33:29;;;;;;;12.73;11.63;;;;;;;18.91;75.93;100740.75;5074667;28;20049;-64
2022/07/22 01:36:00;;;;;;;13.80;12.38;;;;;;;18.78;76.15;100742.84;5075141;28;20064;-64
2022/07/22 01:38:28;;;;;;;13.60;12.18;;;;;;;18.88;76.02;100741.50;5074501;28;20053;-64
2022/07/22 01:40:56;;;;;;;12.70;11.50;;;;;;;18.82;75.52;100735.28;5063112;28;20045;-64
2022/07/22 01:43:23;;;;;;;14.27;12.77;;;;;;;18.86;75.36;100739.03;5054341;28;20053;-64
2022/07/22 01:45:52;;;;;;;13.52;12.13;;;;;;;18.90;75.29;100733.47;5054692;28;20052;-65
2022/07/22 01:48:20;;;;;;;13.88;12.45;;;;;;;18.94;75.38;100736.38;5054614;28;20060;-65
2022/07/22 01:50:48;;;;;;;13.10;11.85;;;;;;;18.93;75.09;100737.56;5055705;28;20056;-65
2022/07/22 01:53:15;;;;;;;12.90;11.70;;;;;;;18.95;75.49;100738.84;5054400;28;20128;-63
2022/07/22 01:55:44;;;;;;;12.10;10.75;;;;;;;18.97;75.17;100744.13;5054768;28;20076;-65
2022/07/22 01:58:11;;;;;;;11.63;10.57;;;;;;;18.94;74.89;100737.22;5054995;28;20503;-65
2022/07/22 02:00:39;;;;;;;10.68;9.68;;;;;;;18.95;74.89;100736.00;5053666;28;20064;-63
2022/07/22 02:03:06;;;;;;;10.70;9.60;;;;;;;18.96;75.11;100743.31;5067681;28;20051;-65
2022/07/22 02:05:34;;;;;;;11.32;10.32;;;;;;;18.98;74.77;100745.75;5074368;28;20513;-65
2022/07/22 02:08:03;;;;;;;12.07;10.88;;;;;;;18.97;74.78;100733.66;5074657;28;20060;-65
2022/07/22 02:10:30;;;;;;;11.10;7.47;;;;;;;18.95;73.90;100736.00;5074174;28;20049;-64
2022/07/22 02:12:59;;;;;;;7.32;6.53;;;;;;;18.87;73.34;100742.66;5056331;28;20482;-65
2022/07/22 02:15:27;;;;;;;5.07;4.57;;;;;;;18.88;73.44;100733.03;5053483;28;20061;-64
2022/07/22 02:17:55;;;;;;;5.20;4.40;;;;;;;18.84;73.52;100740.59;5054407;28;20057;-64
2022/07/22 02:20:23;;;;;;;4.45;3.88;;;;;;;18.82;73.45;100737.31;5053957;28;20053;-64
2022/07/22 02:22:50;;;;;;;6.50;4.40;;;;;;;18.84;73.28;100738.56;5065987;28;20067;-65
2022/07/22 02:25:18;;;;;;;5.90;4.35;;;;;;;18.85;73.37;100742.22;5073918;28;20075;-64
2022/07/22 02:27:45;;;;;;;4.82;3.83;;;;;;;18.84;73.02;100743.41;5074135;28;20075;-65
2022/07/22 02:30:14;;;;;;;5.30;3.47;;;;;;;18.83;73.12;100738.94;5073889;28;20474;-65
2022/07/22 02:32:41;;;;;;;6.10;4.00;;;;;;;18.88;72.73;100747.13;5070285;28;20057;-65
2022/07/22 02:35:09;;;;;;;5.65;3.95;;;;;;;18.83;73.13;100738.94;5073836;28;20059;-64
2022/07/22 02:37:39;;;;;;;7.05;3.88;;;;;;;18.80;73.18;100737.66;5073626;28;20053;-65
2022/07/22 02:40:08;;;;;;;4.47;3.60;;;;;;;18.77;73.00;100734.69;5073520;28;20064;-65
2022/07/22 02:42:35;;;;;;;7.28;4.28;;;;;;;18.80;73.41;100742.50;5065881;28;20475;-64
2022/07/22 02:45:04;;;;;;;5.78;4.63;;;;;;;18.79;73.59;100746.47;5053983;28;20060;-61
2022/07/22 02:47:33;;;;;;;4.30;3.90;;;;;;;18.79;73.42;100738.84;5053582;28;20131;-61
2022/07/22 02:50:00;;;;;;;6.35;4.13;;;;;;;18.73;73.50;100737.47;5054162;28;20405;-61
2022/07/22 02:52:27;;;;;;;5.57;3.38;;;;;;;18.79;73.11;100727.56;5072366;28;20053;-65
2022/07/22 02:54:55;;;;;;;5.05;3.50;;;;;;;18.82;73.01;100731.66;5072858;28;20052;-64
2022/07/22 02:57:22;;;;;;;4.13;3.25;;;;;;;18.81;73.04;100732.81;5073254;28;20049;-64
2022/07/22 02:59:49;;;;;;;4.78;3.85;;;;;;;18.84;73.06;100723.66;5073444;28;20508;-64
2022/07/22 03:02:16;;;;;;;5.22;3.35;;;;;;;18.88;72.79;100724.56;5056547;28;20052;-65
2022/07/22 03:04:45;;;;;;;3.55;2.83;;;;;;;18.89;72.41;100731.81;5053172;28;20437;-64
2022/07/22 03:07:12;;;;;;;5.47;3.25;;;;;;;18.89;73.00;100731.81;5053293;28;20053;-65
2022/07/22 03:09:40;;;;;;;4.20;3.78;;;;;;;18.90;72.82;100733.47;5053061;28;20052;-64
2022/07/22 03:12:07;;;;;;;6.95;4.90;;;;;;;18.90;72.16;100730.66;5063530;28;20057;-65
2022/07/22 03:14:35;;;;;;;6.93;5.35;;;;;;;18.90;72.31;100732.63;5072970;28;20053;-65
2022/07/22 03:17:02;;;;;;;6.18;5.40;;;;;;;18.86;72.50;100741.84;5072388;28;20446;-65
2022/07/22 03:19:29;;;;;;;8.15;6.43;;;;;;;18.82;72.41;100745.78;5072559;28;20059;-65
2022/07/22 03:21:58;;;;;;;6.90;5.68;;;;;;;18.85;72.46;100747.84;5063313;28;20048;-66
2022/07/22 03:24:25;;;;;;;5.57;5.07;;;;;;;18.83;72.83;100741.75;5052336;28;20063;-66
2022/07/22 03:26:53;;;;;;;6.88;5.10;;;;;;;18.81;72.90;100746.94;5052854;28;20819;-66
2022/07/22 03:29:20;;;;;;;8.18;5.10;;;;;;;18.83;72.93;100744.56;5052683;28;20052;-66
2022/07/22 03:31:47;;;;;;;6.18;4.57;;;;;;;18.82;72.89;100742.94;5053312;28;20059;-66
2022/07/22 03:34:15;;;;;;;7.45;5.28;;;;;;;18.83;72.71;100745.38;5052709;28;20060;-66
2022/07/22 03:36:42;;;;;;;5.72;5.00;;;;;;;18.84;72.88;100746.22;5052571;28;20068;-66
2022/07/22 03:39:10;;;;;;;6.60;5.13;;;;;;;18.86;73.24;100746.69;5052633;28;20053;-66
2022/07/22 03:41:38;;;;;;;5.93;4.35;;;;;;;18.88;72.96;100749.13;5051491;28;20053;-65
2022/07/22 03:44:05;;;;;;;7.15;4.97;;;;;;;18.87;72.75;100748.31;5071318;28;20052;-66
2022/07/22 03:46:32;;;;;;;7.53;4.68;;;;;;;18.85;72.88;100754.31;5072084;28;20056;-65
2022/07/22 03:49:00;;;;;;;5.75;4.47;;;;;;;18.84;72.86;100751.88;5072717;28;20048;-65
2022/07/22 03:51:27;;;;;;;5.35;4.20;;;;;;;18.85;73.13;100747.84;5068837;28;20400;-65
2022/07/22 03:53:54;;;;;;;9.57;5.18;;;;;;;18.88;73.00;100743.47;5072508;28;20048;-65
2022/07/22 03:56:23;;;;;;;6.65;4.75;;;;;;;18.89;73.23;100742.31;5072094;28;20052;-65
2022/07/22 03:58:50;;;;;;;6.97;4.90;;;;;;;18.94;73.54;100745.69;5072189;28;20056;-65
2022/07/22 04:01:18;;;;;;;7.60;5.25;;;;;;;18.97;73.37;100755.41;5069522;28;20498;-66
2022/07/22 04:03:45;;;;;;;9.65;6.05;;;;;;;19.01;73.00;100751.50;5072149;28;20048;-66
2022/07/22 04:06:12;;;;;;;7.88;5.63;;;;;;;19.02;72.72;100746.66;5072364;28;20446;-66
2022/07/22 04:08:40;;;;;;;8.70;6.05;;;;;;;19.06;72.76;100747.56;5072052;28;20056;-65
2022/07/22 04:11:07;;;;;;;7.13;6.38;;;;;;;19.08;72.49;100747.22;5064414;28;20057;-65
2022/07/22 04:13:35;;;;;;;8.27;7.22;;;;;;;19.03;72.59;100749.13;5063267;28;20508;-65
2022/07/22 04:16:03;;;;;;;7.10;6.22;;;;;;;19.09;72.56;100752.50;5071708;28;20067;-65
2022/07/22 04:18:31;;;;;;;7.07;6.38;;;;;;;19.11;72.50;100754.94;5072159;28;20052;-65
2022/07/22 04:20:58;;;;;;;9.45;6.80;;;;;;;19.11;72.45;100744.47;5069025;28;20052;-65
2022/07/22 04:23:25;;;;;;;9.32;8.05;;;;;;;19.13;72.05;100746.91;5068447;28;20056;-65
2022/07/22 04:25:53;;;;;;;9.38;8.43;;;;;;;19.12;71.80;100745.28;5072190;28;20052;-65
2022/07/22 04:28:20;;;;;;;10.20;7.88;;;;;;;19.10;71.94;100754.13;5071893;28;20064;-65
2022/07/22 04:30:49;;;;;;;7.78;6.97;;;;;;;19.08;71.78;100742.38;5071025;28;20397;-64
2022/07/22 04:33:16;;;;;;;9.00;6.10;;;;;;;19.12;71.40;100751.75;5052714;28;20064;-65
2022/07/22 04:35:44;;;;;;;7.40;6.43;;;;;;;19.08;71.24;100750.84;5064143;28;20504;-64
2022/07/22 04:38:11;;;;;;;10.10;6.28;;;;;;;19.01;71.03;100751.50;5071581;28;20048;-65
2022/07/22 04:40:39;;;;;;;9.63;6.30;;;;;;;19.03;70.90;100753.97;5067348;28;20049;-65
2022/07/22 04:43:06;;;;;;;8.95;6.57;;;;;;;19.01;71.13;100748.66;5064533;28;20409;-65
2022/07/22 04:45:33;;;;;;;12.63;5.93;;;;;;;19.00;70.47;100752.69;5071560;28;20492;-64
2022/07/22 04:48:02;;;;;;;8.85;5.07;;;;;;;18.97;70.07;100746.94;5071652;28;20049;-65
2022/07/22 04:50:30;;;;;;;8.00;5.03;;;;;;;18.99;69.97;100747.41;5067706;28;20048;-64
2022/07/22 04:52:57;;;;;;;7.72;5.63;;;;;;;19.00;69.80;100741.41;5061935;28;20099;-65
2022/07/22 04:55:25;;;;;;;8.63;5.38;;;;;;;18.99;69.59;100747.41;5071925;28;20068;-65
2022/07/22 04:57:52;;;;;;;7.10;4.75;;;;;;;18.98;69.57;100743.78;5060458;28;20057;-64
2022/07/22 05:00:19;;;;;;;6.65;4.65;;;;;;;19.05;68.94;100748.75;5067286;28;20060;-65
2022/07/22 05:02:47;;;;;;;7.97;5.10;;;;;;;19.09;68.96;100746.84;5066957;28;20572;-65
2022/07/22 05:05:15;;;;;;;7.40;4.03;;;;;;;19.09;68.44;100751.66;5075256;28;20045;-65
2022/07/22 05:07:43;;;;;;;7.32;3.83;;;;;;;19.11;68.40;100754.94;5063190;28;20052;-65
2022/07/22 05:10:10;;;;;;;6.75;4.35;;;;;;;19.17;68.52;100754.31;5070374;28;20056;-64
2022/07/22 05:12:38;;;;;;;7.90;3.97;;;;;;;19.22;68.44;100744.75;5060522;28;20115;-64
2022/07/22 05:15:06;;;;;;;8.75;4.28;;;;;;;19.21;67.70;100748.72;5071167;28;20041;-64
2022/07/22 05:17:33;;;;;;;10.40;3.60;;;;;;;19.19;67.26;100751.94;5073679;28;20092;-64
2022/07/22 05:20:02;;;;;;;6.50;3.53;;;;;;;19.20;67.85;100753.56;5074839;28;20493;-65
2022/07/22 05:22:31;;;;;;;8.27;3.88;;;;;;;19.29;67.85;100750.53;5075071;28;20059;-64
2022/07/22 05:24:58;;;;;;;9.23;4.22;;;;;;;19.29;67.81;100753.38;5070480;28;20053;-64
2022/07/22 05:27:26;;;;;;;5.65;3.22;;;;;;;19.36;67.72;100755.53;5065750;28;20056;-64
2022/07/22 05:29:53;;;;;;;6.18;3.08;;;;;;;19.38;67.44;100751.19;5063358;28;20056;-64
2022/07/22 05:32:20;;;;;;;9.20;3.50;;;;;;;19.39;67.67;100755.63;5074025;28;20513;-64
2022/07/22 05:34:47;;;;;;;6.88;3.25;;;;;;;19.35;67.51;100759.56;5067775;28;20051;-64
2022/07/22 05:37:15;;;;;;;7.30;2.83;;;;;;;19.35;67.03;100751.91;5065135;28;20063;-65
2022/07/22 05:39:44;;;;;;;7.05;3.33;;;;;;;19.41;67.15;100764.56;5057389;28;20045;-64
2022/07/22 05:42:11;;;;;;;6.85;3.63;;;;;;;19.47;67.87;100753.81;5054762;28;20045;-64
2022/07/22 05:44:39;;;;;;;6.78;3.60;;;;;;;19.52;67.92;100761.16;5054354;28;21272;-64
2022/07/22 05:47:06;;;;;;;7.82;3.80;;;;;;;19.54;67.89;100765.25;5054853;28;20331;-64
2022/07/22 05:49:34;;;;;;;5.72;3.45;;;;;;;19.55;67.37;100769.72;5052675;28;20060;-63
2022/07/22 05:52:01;;;;;;;7.78;3.90;;;;;;;19.59;66.91;100770.63;5054386;28;20516;-64
2022/07/22 05:54:32;;;;;;;7.57;3.92;;;;;;;19.62;67.04;100758.56;5056359;28;20386;-64
2022/07/22 05:57:00;;;;;;;6.35;3.35;;;;;;;19.76;66.61;100762.94;5051340;28;20485;-64
2022/07/22 05:59:30;;;;;;;6.75;3.60;;;;;;;19.82;66.19;100765.13;5062728;28;20048;-64
2022/07/22 06:01:57;;;;;;;6.88;3.33;;;;;;;19.83;65.93;100766.75;5057893;28;20055;-64
2022/07/22 06:04:25;;;;;;;10.98;3.42;;;;;;;19.92;65.33;100769.34;5054046;28;20049;-63
2022/07/22 06:06:52;;;;;;;5.75;3.45;;;;;;;20.01;65.22;100763.47;5059722;28;20052;-64
2022/07/22 06:09:19;;;;;;;7.35;3.20;;;;;;;20.06;65.08;100760.38;5073831;28;20060;-63
2022/07/22 06:11:47;;;;;;;10.05;3.38;;;;;;;20.02;65.21;100760.28;5074105;28;20044;-64
2022/07/22 06:14:16;;;;;;;10.63;3.72;;;;;;;20.04;64.80;100763.56;5074129;28;20052;-64
2022/07/22 06:16:43;;;;;;;7.55;3.80;;;;;;;20.17;64.16;100767.03;5069722;28;20516;-64
2022/07/22 06:19:12;;;;;;;8.50;3.72;;;;;;;20.33;64.16;100757.69;5074303;28;20059;-64
2022/07/22 06:21:40;;;;;;;6.35;3.50;;;;;;;20.48;63.45;100751.09;5073916;28;20052;-64
2022/07/22 06:24:07;;;;;;;6.28;3.53;;;;;;;20.59;62.71;100765.47;5074124;28;20058;-65
2022/07/22 06:26:35;;;;;;;7.13;3.90;;;;;;;20.65;62.61;100755.47;5071703;28;20074;-64
2022/07/22 06:29:03;;;;;;;6.03;3.90;;;;;;;20.63;62.44;100755.84;5072687;28;20063;-64
2022/07/22 06:31:31;;;;;;;6.50;3.92;;;;;;;20.65;61.83;100759.13;5074236;28;20052;-64
2022/07/22 06:33:59;;;;;;;7.05;3.88;;;;;;;20.54;62.47;100752.41;5073976;28;20048;-64
2022/07/22 06:36:26;;;;;;;7.82;4.18;;;;;;;20.50;62.80;100762.84;5074100;28;20059;-64
2022/07/22 06:38:53;;;;;;;7.20;3.47;;;;;;;20.50;62.43;100768.50;5072597;28;20413;-64
2022/07/22 06:41:21;;;;;;;6.95;4.25;;;;;;;20.47;62.59;100764.44;5067698;28;20063;-64
2022/07/22 06:43:48;;;;;;;9.40;4.25;;;;;;;20.44;62.58;100765.16;5073565;28;20056;-64
2022/07/22 06:46:18;;;;;;;6.25;4.57;;;;;;;20.43;62.79;100769.19;5072404;28;20051;-64
2022/07/22 06:48:47;;;;;;;8.30;5.72;;;;;;;20.43;62.54;100774.84;5070103;28;20048;-64
2022/07/22 06:51:14;;;;;;;5.60;4.32;;;;;;;20.42;63.00;100767.53;5073724;28;20063;-64
2022/07/22 06:53:42;;;;;;;6.45;4.38;;;;;;;20.33;63.59;100772.63;5073471;28;20051;-64
2022/07/22 06:56:09;;;;;;;8.00;4.50;;;;;;;20.37;63.81;100769.84;5073723;28;20044;-64
2022/07/22 06:58:37;;;;;;;10.27;3.70;;;;;;;20.32;63.24;100770.97;5066121;28;20516;-64
2022/07/22 07:01:07;;;;;;;8.60;3.47;;;;;;;20.22;62.87;100769.59;5071208;28;20048;-64
2022/07/22 07:03:34;;;;;;;7.53;3.53;;;;;;;20.13;63.76;100766.16;5073521;28;20401;-63
2022/07/22 07:06:04;;;;;;;8.80;3.97;;;;;;;20.18;63.05;100765.88;5073358;28;20123;-64
2022/07/22 07:08:31;;;;;;;;;;;;;;;20.13;63.39;100768.16;5064005;28;20056;-64
2022/07/22 07:10:58;;;;;;;7.72;3.00;;;;;;;20.11;63.51;100765.72;5053282;28;19925;-64
2022/07/22 07:13:25;;;;;;;4.38;2.80;;;;;;;20.11;63.41;100767.72;5053926;28;20048;-64
2022/07/22 07:15:55;;;;;;;9.15;3.17;;;;;;;20.10;63.74;100764.09;5072430;28;20053;-64
2022/07/22 07:18:23;;;;;;;9.00;3.30;;;;;;;20.16;63.94;100761.75;5073352;28;20156;-64
2022/07/22 07:20:50;;;;;;;6.20;3.38;;;;;;;20.18;63.96;100757.38;5068556;28;20496;-64
2022/07/22 07:23:19;;;;;;;7.53;3.17;;;;;;;20.19;63.03;100769.50;5073103;28;20048;-64
2022/07/22 07:25:46;;;;;;;8.50;3.20;;;;;;;20.12;63.48;100767.38;5072779;28;20052;-64
2022/07/22 07:28:14;;;;;;;10.30;3.45;;;;;;;20.14;63.42;100758.47;5072580;28;20056;-64
2022/07/22 07:30:41;;;;;;;6.00;2.78;;;;;;;20.19;63.32;100758.19;5069459;28;20067;-64
2022/07/22 07:33:11;;;;;;;5.13;2.80;;;;;;;20.23;63.41;100759.09;5067018;28;20080;-65
2022/07/22 07:35:38;;;;;;;6.63;3.33;;;;;;;20.24;62.69;100755.91;5072346;28;20048;-64
2022/07/22 07:38:06;;;;;;;8.13;3.20;;;;;;;20.31;63.13;100757.22;5072784;28;20408;-64
2022/07/22 07:40:35;;;;;;;6.03;2.75;;;;;;;20.39;62.60;100764.63;5072597;28;20074;-64
2022/07/22 07:43:02;;;;;;;6.50;3.17;;;;;;;20.44;62.21;100764.34;5070330;28;20053;-62
2022/07/22 07:45:31;;;;;;;7.35;2.90;;;;;;;20.41;61.73;100759.44;5071190;28;20052;-65
2022/07/22 07:47:58;;;;;;;10.23;3.45;;;;;;;20.36;61.85;100757.72;5072454;28;20057;-64
2022/07/22 07:50:25;;;;;;;10.98;4.32;;;;;;;20.42;62.19;100755.41;5071951;28;20060;-64
2022/07/22 07:52:53;;;;;;;8.27;3.42;;;;;;;20.31;61.75;100760.88;5072336;28;20489;-64
2022/07/22 07:55:23;;;;;;;6.97;3.15;;;;;;;20.26;61.69;100761.16;5067704;28;20053;-64
2022/07/22 07:57:52;;;;;;;11.35;4.70;;;;;;;20.30;62.39;100756.38;5071151;28;20492;-64
2022/07/22 08:00:21;;;;;;;7.38;3.47;;;;;;;20.32;62.55;100759.66;5072569;28;20053;-65
2022/07/22 08:02:49;;;;;;;8.63;3.72;;;;;;;20.38;61.83;100766.66;5071991;28;20063;-64
2022/07/22 08:05:18;;;;;;;6.18;3.33;;;;;;;20.33;61.79;100754.84;5072117;28;20049;-65
2022/07/22 08:07:46;;;;;;;8.95;3.78;;;;;;;20.40;61.74;100757.81;5069607;28;20048;-64
2022/07/22 08:10:13;;;;;;;6.38;3.42;;;;;;;20.46;61.73;100757.13;5069067;28;20066;-64
2022/07/22 08:12:40;;;;;;;7.85;3.15;;;;;;;20.53;61.18;100750.78;5071983;28;20053;-64
2022/07/22 08:15:10;;;;;;;7.80;3.65;;;;;;;20.39;61.32;100756.16;5071433;28;20495;-65
2022/07/22 08:17:38;;;;;;;4.97;3.55;;;;;;;20.47;60.84;100746.59;5072080;28;20048;-65
2022/07/22 08:20:07;;;;;;;7.90;3.92;;;;;;;20.42;60.73;100744.09;5068155;28;20057;-65
2022/07/22 08:22:38;;;;;;;6.95;4.35;;;;;;;20.34;60.75;100753.63;5072281;28;20060;-65
2022/07/22 08:25:09;;;;;;;7.13;3.97;;;;;;;20.28;60.88;100759.63;5071802;28;20060;-65
2022/07/22 08:27:36;;;;;;;6.68;3.88;;;;;;;20.42;61.17;100752.59;5071746;28;20044;-65
2022/07/22 08:30:05;;;;;;;7.75;4.55;;;;;;;20.30;61.56;100758.41;5071328;28;20056;-65
2022/07/22 08:32:35;;;;;;;9.02;5.40;;;;;;;20.29;60.91;100757.59;5068268;28;20049;-65
2022/07/22 08:35:03;;;;;;;7.20;4.30;;;;;;;20.43;60.94;100746.56;5075641;28;20048;-65
2022/07/22 08:37:30;;;;;;;7.97;5.13;;;;;;;20.35;61.37;100750.44;5075992;28;20063;-65
2022/07/22 08:39:58;;;;;;;9.45;5.05;;;;;;;20.19;61.70;100747.69;5075319;28;20056;-65
2022/07/22 08:42:26;;;;;;;8.65;4.90;;;;;;;20.47;61.80;100749.44;5075670;28;20512;-65
2022/07/22 08:44:55;;;;;;;7.82;5.00;;;;;;;20.68;60.57;100747.06;5055532;28;20057;-65
2022/07/22 08:47:24;;;;;;;10.73;4.70;;;;;;;20.85;59.97;100747.72;5055300;28;20052;-65
2022/07/22 08:49:53;;;;;;;9.60;5.23;;;;;;;20.80;59.64;100746.03;5055403;28;20053;-64
2022/07/22 08:52:24;;;;;;;6.78;4.28;;;;;;;20.74;60.31;100750.38;5055722;28;20056;-64
2022/07/22 08:54:51;;;;;;;6.75;4.50;;;;;;;20.75;60.55;100748.38;5054767;28;20057;-64
2022/07/22 08:57:18;;;;;;;8.52;5.03;;;;;;;20.61;60.59;100752.56;5071486;28;20051;-64
2022/07/22 08:59:53;;;;;;;7.80;5.38;;;;;;;20.43;60.50;100748.56;5075384;28;20386;-65
2022/07/22 09:02:21;;;;;;;6.75;5.03;;;;;;;20.30;61.41;100761.25;5075298;28;20052;-65
2022/07/22 09:04:56;;;;;;;8.90;5.72;;;;;;;20.42;61.10;100756.22;5075210;28;20060;-64
2022/07/22 09:07:33;;;;;;;8.00;5.22;;;;;;;20.48;60.90;100762.41;5070940;28;20040;-64
2022/07/22 09:10:01;;;;;;;8.05;4.80;;;;;;;20.59;60.37;100762.63;5074444;28;20063;-64
2022/07/22 09:12:32;;;;;;;8.13;4.80;;;;;;;20.61;60.14;100768.75;5074944;28;20045;-64
2022/07/22 09:15:00;;;;;;;9.70;5.22;;;;;;;20.53;60.10;100772.59;5074391;28;20060;-64
2022/07/22 09:17:31;;;;;;;6.82;4.82;;;;;;;20.76;60.17;100764.16;5074664;28;20057;-63
2022/07/22 09:20:01;;;;;;;9.70;5.05;;;;;;;20.74;60.52;100769.38;5054039;28;20055;-64
2022/07/22 09:22:36;;;;;;;7.32;4.70;;;;;;;20.65;60.39;100769.63;5075016;28;20049;-65
2022/07/22 09:25:25;;;;;;;7.63;4.82;;;;;;;20.75;59.70;100763.34;5074773;28;20481;-64
2022/07/22 09:27:55;;;;;;;6.88;4.47;;;;;;;20.85;59.46;100767.53;5074351;28;20044;-64
2022/07/22 09:30:29;;;;;;;7.72;4.47;;;;;;;21.05;59.07;100763.44;5075187;28;20053;-64
2022/07/22 09:32:57;;;;;;;7.95;4.30;;;;;;;21.22;59.00;100766.97;5063439;28;20496;-65
2022/07/22 09:35:26;;;;;;;6.60;4.75;;;;;;;21.38;58.61;100764.78;5054891;28;20068;-64
2022/07/22 09:37:55;;;;;;;6.30;4.20;;;;;;;21.51;57.60;100758.94;5054749;28;20477;-64
2022/07/22 09:40:25;;;;;;;8.52;4.50;;;;;;;21.49;57.91;100762.16;5054999;28;20072;-64
2022/07/22 09:42:54;;;;;;;7.07;4.50;;;;;;;21.37;57.95;100760.31;5056265;28;20049;-64
2022/07/22 09:45:22;;;;;;;7.55;5.13;;;;;;;21.36;57.79;100755.03;5072799;28;20397;-65
2022/07/22 09:47:51;;;;;;;6.80;4.50;;;;;;;21.55;58.08;100759.81;5074286;28;20067;-64
2022/07/22 09:50:21;;;;;;;8.18;5.28;;;;;;;21.58;57.78;100761.88;5074725;28;20059;-65
2022/07/22 09:52:51;;;;;;;8.98;4.28;;;;;;;21.64;57.33;100763.97;5074458;28;20071;-65
2022/07/22 09:55:20;;;;;;;6.60;4.68;;;;;;;21.59;57.61;100760.69;5072384;28;20053;-63
2022/07/22 09:57:48;;;;;;;6.22;4.03;;;;;;;21.88;57.46;100759.88;5074192;28;20052;-64
2022/07/22 10:00:18;;;;;;;7.93;4.32;;;;;;;22.14;56.05;100758.16;5074453;28;20377;-65
2022/07/22 10:02:53;;;;;;;6.90;4.25;;;;;;;22.25;56.45;100758.31;5074051;28;20056;-63
2022/07/22 10:05:23;;;;;;;8.30;4.35;;;;;;;22.38;55.10;100756.03;5074334;28;20159;-65
2022/07/22 10:07:54;;;;;;;5.88;3.70;;;;;;;22.53;55.36;100757.00;5073807;28;20056;-65
2022/07/22 10:10:23;;;;;;;6.45;4.00;;;;;;;22.65;54.64;100756.72;5068945;28;20052;-65
2022/07/22 10:12:51;;;;;;;;;;;;;;;22.76;54.39;100751.16;5074307;28;20056;-64
2022/07/22 10:15:22;;;;;;;5.30;3.63;;;;;;;22.78;52.97;100754.41;5073598;28;20003;-65
2022/07/22 10:17:53;;;;;;;8.57;4.32;;;;;;;22.81;53.27;100754.44;5074021;28;20401;-65
2022/07/22 10:20:23;;;;;;;5.45;4.07;;;;;;;22.86;53.51;100753.28;5074192;28;20052;-65
2022/07/22 10:22:57;;;;;;;4.60;3.95;;;;;;;22.97;53.04;100748.50;5059032;28;20064;-65
2022/07/22 10:25:25;;;;;;;8.05;5.00;;;;;;;22.99;51.89;100748.09;5053998;28;20053;-65
2022/07/22 10:27:56;;;;;;;7.57;5.32;;;;;;;22.93;51.88;100753.34;5053599;28;20049;-65
2022/07/22 10:30:26;;;;;;;5.47;4.05;;;;;;;22.86;51.46;100750.44;5071548;28;20055;-65
2022/07/22 10:33:11;;;;;;;6.78;4.45;;;;;;;22.94;51.57;100749.28;5073449;28;20055;-65
2022/07/22 10:35:55;;;;;;;5.25;4.47;;;;;;;23.02;51.17;100738.84;5060076;28;20064;-65
2022/07/22 10:38:25;;;;;;;7.80;5.10;;;;;;;22.99;51.52;100746.06;5055241;28;20049;-65
2022/07/22 10:40:55;;;;;;;6.63;5.03;;;;;;;22.95;51.18;100739.56;5053436;28;20067;-64
2022/07/22 10:43:24;;;;;;;8.20;5.75;;;;;;;22.96;51.33;100740.38;5053713;28;20413;-65
2022/07/22 10:45:56;;;;;;;7.20;5.72;;;;;;;23.06;51.22;100737.66;5053573;28;20048;-64
2022/07/22 10:48:26;;;;;;;8.57;5.53;;;;;;;23.08;50.95;100731.59;5053588;28;20064;-65
2022/07/22 10:51:05;;;;;;;6.45;5.70;;;;;;;23.10;50.22;100729.16;5053159;28;20067;-64
2022/07/22 10:53:54;;;;;;;8.32;6.38;;;;;;;23.19;51.15;100725.97;5053588;28;20053;-65
2022/07/22 10:56:26;;;;;;;7.88;6.22;;;;;;;23.24;51.00;100725.59;5052424;28;20079;-65
2022/07/22 10:59:09;;;;;;;7.18;5.88;;;;;;;23.25;50.60;100715.88;5053224;28;20064;-64
2022/07/22 11:01:38;;;;;;;6.43;5.55;;;;;;;23.35;49.34;100714.28;5052397;28;20049;-64
2022/07/22 11:04:15;;;;;;;;;;;;;;;23.36;49.79;100713.09;5060170;28;20053;-62
2022/07/22 11:06:43;;;;;;;8.13;6.00;;;;;;;23.45;49.78;100705.81;5071984;28;20396;-64
2022/07/22 11:09:15;;;;;;;8.50;7.50;;;;;;;23.57;49.56;100699.00;5072726;28;20048;-64
2022/07/22 11:11:45;;;;;;;8.10;7.30;;;;;;;23.77;49.07;100704.41;5073197;28;20059;-64
2022/07/22 11:14:18;;;;;;;7.80;7.00;;;;;;;23.92;48.37;100700.41;5069595;28;21651;-64
2022/07/22 11:16:47;;;;;;;8.82;7.93;;;;;;;23.98;48.32;100707.34;5069710;28;20523;-64
2022/07/22 11:19:14;;;;;;;8.20;7.50;;;;;;;24.01;47.63;100703.69;5072851;28;20048;-65
2022/07/22 11:21:42;;;;;;;8.40;7.25;;;;;;;24.12;46.82;100703.72;5072399;28;20512;-64
2022/07/22 11:24:09;;;;;;;8.85;8.00;;;;;;;24.18;46.96;100702.13;5072382;28;20048;-64
2022/07/22 11:26:41;;;;;;;7.45;6.72;;;;;;;24.28;46.38;100695.63;5068919;28;20048;-64
2022/07/22 11:29:09;;;;;;;8.15;7.35;;;;;;;24.22;46.12;100708.63;5072548;28;20052;-65
2022/07/22 11:31:40;;;;;;;7.72;6.97;;;;;;;24.24;46.64;100697.66;5072565;28;20063;-64